createdAt,value
2023-02-19T00:01:56.639Z,17.98
2023-02-19T00:04:23.803Z,17.27
2023-02-19T00:06:56.060Z,16.42
2023-02-19T00:09:22.922Z,17.00
2023-02-19T00:11:50.041Z,15.80
2023-02-19T00:14:20.096Z,17.50
2023-02-19T00:16:47.525Z,17.98
2023-02-19T00:19:16.712Z,16.55
2023-02-19T00:21:43.798Z,18.08
2023-02-19T00:24:11.962Z,17.25
2023-02-19T00:26:40.961Z,16.88
2023-02-19T00:29:07.664Z,16.42
2023-02-19T00:31:36.054Z,12.73
2023-02-19T00:34:05.288Z,17.88
2023-02-19T00:36:36.093Z,17.33
2023-02-19T00:39:03.884Z,17.17
2023-02-19T00:41:30.669Z,16.95
2023-02-19T00:44:09.609Z,18.80
2023-02-19T00:46:42.231Z,16.58
2023-02-19T00:49:16.483Z,19.08
2023-02-19T00:51:46.152Z,19.15
2023-02-19T00:54:16.250Z,16.83
2023-02-19T00:56:46.322Z,16.77
2023-02-19T00:59:13.079Z,17.33
2023-02-19T01:01:44.575Z,16.05
2023-02-19T01:04:12.219Z,16.30
2023-02-19T01:06:43.529Z,16.27
2023-02-19T01:09:10.280Z,17.20
2023-02-19T01:11:38.511Z,16.52
2023-02-19T01:14:05.280Z,16.23
2023-02-19T01:16:34.722Z,16.35
2023-02-19T01:19:01.570Z,15.65
2023-02-19T01:21:29.700Z,15.80
2023-02-19T01:23:57.562Z,17.13
2023-02-19T01:26:27.583Z,19.55
2023-02-19T01:28:54.223Z,18.30
2023-02-19T01:31:29.051Z,18.20
2023-02-19T01:34:01.225Z,17.33
2023-02-19T01:36:31.633Z,18.38
2023-02-19T01:39:06.613Z,17.83
2023-02-19T01:41:36.715Z,17.52
2023-02-19T01:44:08.898Z,17.48
2023-02-19T01:46:39.645Z,17.10
2023-02-19T01:49:23.015Z,17.63
2023-02-19T01:51:57.589Z,19.08
2023-02-19T01:54:29.122Z,19.17
2023-02-19T01:56:56.956Z,19.00
2023-02-19T01:59:23.731Z,19.27
2023-02-19T02:01:50.553Z,17.92
2023-02-19T02:04:19.852Z,18.35
2023-02-19T02:06:52.936Z,18.38
2023-02-19T02:09:39.856Z,18.55
2023-02-19T02:12:06.685Z,17.02
2023-02-19T02:14:39.199Z,18.92
2023-02-19T02:17:26.269Z,17.05
2023-02-19T02:20:15.431Z,17.98
2023-02-19T02:22:52.263Z,18.45
2023-02-19T02:25:33.388Z,17.65
2023-02-19T02:28:31.712Z,17.70
2023-02-19T02:31:04.002Z,17.98
2023-02-19T02:33:44.052Z,16.05
2023-02-19T02:36:27.232Z,20.90
2023-02-19T02:38:55.477Z,17.98
2023-02-19T02:41:22.630Z,17.77
2023-02-19T02:43:51.691Z,17.95
2023-02-19T02:46:24.985Z,18.13
2023-02-19T02:48:57.042Z,17.80
2023-02-19T02:51:41.513Z,18.33
2023-02-19T02:54:42.702Z,19.77
2023-02-19T02:57:14.911Z,17.33
2023-02-19T02:59:45.977Z,18.70
2023-02-19T03:02:22.965Z,21.25
2023-02-19T03:05:39.582Z,17.55
2023-02-19T03:08:50.250Z,19.85
2023-02-19T03:11:35.658Z,16.90
2023-02-19T03:14:34.747Z,18.02
2023-02-19T03:17:32.214Z,15.52
2023-02-19T03:20:01.178Z,12.82
2023-02-19T03:22:37.932Z,15.02
2023-02-19T03:25:28.552Z,17.38
2023-02-19T03:27:58.672Z,18.05
2023-02-19T03:30:30.729Z,17.98
2023-02-19T03:33:15.661Z,16.27
2023-02-19T03:35:52.680Z,19.33
2023-02-19T03:38:48.239Z,17.60
2023-02-19T03:41:26.897Z,23.13
2023-02-19T03:43:59.559Z,19.67
2023-02-19T03:46:41.508Z,18.92
2023-02-19T03:49:23.777Z,15.93
2023-02-19T03:52:11.843Z,18.63
2023-02-19T03:54:45.359Z,17.33
2023-02-19T03:57:18.931Z,17.63
2023-02-19T04:00:05.814Z,16.85
2023-02-19T04:02:47.974Z,16.50
2023-02-19T04:05:18.931Z,15.98
2023-02-19T04:07:51.889Z,16.27
2023-02-19T04:10:19.890Z,17.23
2023-02-19T04:12:58.138Z,16.77
2023-02-19T04:15:32.184Z,15.80
2023-02-19T04:18:09.358Z,16.10
2023-02-19T04:20:41.153Z,16.83
2023-02-19T04:23:08.261Z,14.63
2023-02-19T04:25:47.221Z,16.48
2023-02-19T04:28:16.609Z,15.15
2023-02-19T04:30:46.841Z,14.50
2023-02-19T04:33:17.937Z,16.55
2023-02-19T04:35:46.759Z,14.70
2023-02-19T04:38:14.498Z,14.27
2023-02-19T04:40:41.201Z,14.48
2023-02-19T04:43:10.482Z,14.55
2023-02-19T04:45:41.214Z,15.27
2023-02-19T04:48:07.918Z,14.10
2023-02-19T04:50:34.652Z,16.20
2023-02-19T04:53:01.325Z,14.68
2023-02-19T04:55:28.024Z,13.98
2023-02-19T04:57:54.640Z,13.90
2023-02-19T05:00:21.310Z,14.30
2023-02-19T05:02:50.438Z,15.40
2023-02-19T05:05:17.115Z,13.52
2023-02-19T05:07:43.767Z,15.00
2023-02-19T05:10:16.126Z,15.15
2023-02-19T05:12:45.134Z,15.60
2023-02-19T05:15:11.797Z,13.85
2023-02-19T05:17:38.431Z,14.48
2023-02-19T05:20:08.399Z,13.60
2023-02-19T05:22:37.116Z,14.02
2023-02-19T05:25:04.972Z,14.07
2023-02-19T05:27:36.169Z,13.88
2023-02-19T05:30:05.207Z,14.05
2023-02-19T05:32:31.873Z,15.10
2023-02-19T05:34:58.524Z,15.23
2023-02-19T05:37:25.133Z,13.65
2023-02-19T05:39:51.772Z,14.85
2023-02-19T05:42:18.410Z,14.75
2023-02-19T05:44:46.336Z,15.45
2023-02-19T05:47:18.270Z,15.13
2023-02-19T05:49:52.055Z,15.75
2023-02-19T05:52:21.189Z,14.93
2023-02-19T05:54:50.686Z,14.55
2023-02-19T05:57:19.081Z,14.30
2023-02-19T05:59:45.737Z,14.35
2023-02-19T06:02:14.838Z,14.45
2023-02-19T06:04:41.429Z,15.63
2023-02-19T06:07:08.019Z,16.60
2023-02-19T06:09:34.675Z,16.08
2023-02-19T06:12:01.262Z,15.68
2023-02-19T06:14:31.781Z,14.82
2023-02-19T06:16:58.366Z,15.45
2023-02-19T06:19:27.803Z,19.08
2023-02-19T06:21:55.812Z,15.15
2023-02-19T06:24:22.449Z,14.93
2023-02-19T06:29:32.815Z,15.73
2023-02-19T06:32:04.506Z,16.33
2023-02-19T06:34:31.555Z,17.10
2023-02-19T06:36:58.751Z,15.52
2023-02-19T06:39:25.907Z,15.18
2023-02-19T06:41:56.526Z,15.30
2023-02-19T06:44:25.870Z,15.05
2023-02-19T06:46:55.626Z,14.32
2023-02-19T06:49:22.942Z,15.07
2023-02-19T06:51:49.607Z,14.75
2023-02-19T06:54:16.203Z,15.05
2023-02-19T06:56:44.842Z,16.17
2023-02-19T06:59:18.701Z,17.95
2023-02-19T07:01:47.843Z,15.98
2023-02-19T07:04:14.684Z,15.75
2023-02-19T07:06:43.681Z,17.60
2023-02-19T07:09:11.735Z,18.60
2023-02-19T07:11:40.802Z,17.95
2023-02-19T07:14:15.391Z,18.92
2023-02-19T07:16:47.375Z,18.77
2023-02-19T07:19:16.084Z,18.67
2023-02-19T07:21:42.816Z,20.45
2023-02-19T07:24:11.364Z,18.90
2023-02-19T07:26:38.058Z,18.75
2023-02-19T07:29:05.155Z,16.83
2023-02-19T07:31:31.939Z,17.75
2023-02-19T07:34:03.620Z,18.38
2023-02-19T07:36:33.125Z,17.15
2023-02-19T07:39:00.529Z,19.23
2023-02-19T07:41:27.940Z,21.67
2023-02-19T07:44:02.539Z,25.30
2023-02-19T07:49:14.683Z,21.33
2023-02-19T07:51:44.649Z,19.17
2023-02-19T07:54:15.826Z,17.05
2023-02-19T07:56:48.349Z,18.13
2023-02-19T07:59:15.978Z,17.30
2023-02-19T08:02:04.095Z,16.88
2023-02-19T08:49:32.486Z,15.80
2023-02-19T08:51:59.131Z,14.95
2023-02-19T08:54:25.788Z,14.90
2023-02-19T08:56:54.852Z,15.43
2023-02-19T08:59:21.937Z,14.63
2023-02-19T09:01:48.598Z,13.77
2023-02-19T09:04:15.323Z,15.60
2023-02-19T09:06:42.070Z,12.95
2023-02-19T09:09:08.808Z,11.40
2023-02-19T09:43:37.638Z,8.50
2023-02-19T11:44:39.909Z,8.30
2023-02-19T12:40:14.491Z,5.78
2023-02-19T12:43:05.762Z,6.70
2023-02-19T12:48:18.800Z,7.25
2023-02-19T12:50:48.844Z,7.63
2023-02-19T12:53:36.809Z,7.00
2023-02-19T12:56:12.632Z,7.82
2023-02-19T12:58:56.124Z,6.72
2023-02-19T13:01:49.165Z,7.85
2023-02-19T13:04:29.516Z,8.00
2023-02-19T13:07:10.036Z,9.05
2023-02-19T13:09:45.184Z,7.65
2023-02-19T13:12:18.060Z,8.57
2023-02-19T13:14:59.696Z,9.63
2023-02-19T13:17:49.385Z,7.28
2023-02-19T13:20:25.913Z,8.93
2023-02-19T13:26:02.580Z,8.98
2023-02-19T13:28:48.961Z,7.18
2023-02-19T13:31:56.254Z,8.00
2023-02-19T13:34:48.570Z,9.60
2023-02-19T13:37:23.231Z,8.80
2023-02-19T13:39:53.089Z,9.85
2023-02-19T13:42:51.718Z,8.73
2023-02-19T13:45:28.972Z,8.18
2023-02-19T13:47:57.073Z,7.80
2023-02-19T13:50:31.057Z,7.45
2023-02-19T13:53:03.311Z,8.38
2023-02-19T13:55:50.975Z,11.57
2023-02-19T13:58:55.870Z,9.00
2023-02-19T14:01:54.261Z,9.85
2023-02-19T14:04:27.475Z,7.70
2023-02-19T14:07:03.110Z,7.35
2023-02-19T14:09:43.802Z,7.28
2023-02-19T14:12:15.458Z,7.60
2023-02-19T14:14:56.287Z,5.88
2023-02-19T14:17:39.957Z,5.82
2023-02-19T14:20:09.421Z,6.60
2023-02-19T14:22:57.032Z,5.90
2023-02-19T14:25:45.256Z,6.93
2023-02-19T14:28:21.588Z,7.22
2023-02-19T14:30:54.338Z,8.85
2023-02-19T14:33:31.281Z,8.07
2023-02-19T14:36:15.863Z,11.15
2023-02-19T14:38:51.194Z,7.63
2023-02-19T14:41:19.024Z,5.93
2023-02-19T14:43:48.995Z,7.00
2023-02-19T14:46:24.505Z,7.72
2023-02-19T14:48:54.047Z,4.93
2023-02-19T14:51:31.872Z,3.72
2023-02-19T14:54:04.432Z,5.82
2023-02-19T14:56:34.446Z,6.15
2023-02-19T14:59:22.816Z,5.53
2023-02-19T15:02:14.790Z,5.50
2023-02-19T15:04:41.407Z,4.68
2023-02-19T15:07:13.865Z,6.15
2023-02-19T15:09:47.556Z,7.05
2023-02-19T15:12:25.626Z,41.50
2023-02-19T15:14:56.519Z,7.40
2023-02-19T15:17:31.682Z,8.20
2023-02-19T15:20:10.798Z,6.25
2023-02-19T15:22:41.445Z,7.10
2023-02-19T15:25:14.207Z,7.88
2023-02-19T15:27:40.925Z,6.90
2023-02-19T15:30:24.448Z,7.00
2023-02-19T15:33:01.678Z,8.18
2023-02-19T15:35:30.121Z,7.88
2023-02-19T15:37:57.137Z,6.47
2023-02-19T15:40:30.779Z,8.50
2023-02-19T15:43:02.444Z,9.38
2023-02-19T15:45:44.668Z,9.40
2023-02-19T15:48:23.144Z,13.50
2023-02-19T15:50:57.965Z,11.48
2023-02-19T15:53:30.033Z,8.50
2023-02-19T15:56:37.458Z,7.20
2023-02-19T15:59:11.664Z,6.50
2023-02-19T16:01:40.063Z,6.85
2023-02-19T16:04:13.219Z,8.00
2023-02-19T16:06:59.697Z,10.82
2023-02-19T16:09:38.409Z,8.25
2023-02-19T16:12:21.017Z,7.53
2023-02-19T16:14:50.698Z,6.93
2023-02-19T16:17:28.017Z,5.97
2023-02-19T16:19:58.468Z,7.20
2023-02-19T16:22:28.625Z,5.10
2023-02-19T16:25:07.796Z,5.90
2023-02-19T16:27:37.853Z,5.95
2023-02-19T16:30:21.238Z,5.80
2023-02-19T16:33:07.820Z,6.13
2023-02-19T16:35:42.325Z,5.20
2023-02-19T16:38:18.129Z,5.75
2023-02-19T16:40:54.380Z,5.35
2023-02-19T16:43:27.629Z,5.10
2023-02-19T16:45:56.788Z,5.18
2023-02-19T16:48:24.180Z,6.68
2023-02-19T16:50:54.287Z,5.55
2023-02-19T16:53:28.289Z,6.32
2023-02-19T16:55:55.184Z,4.38
2023-02-19T16:58:24.573Z,4.20
2023-02-19T17:00:53.791Z,4.88
2023-02-19T17:03:26.245Z,5.07
2023-02-19T17:05:56.369Z,6.10
2023-02-19T17:08:31.252Z,5.45
2023-02-19T17:10:59.125Z,4.50
2023-02-19T17:13:27.660Z,4.25
2023-02-19T17:15:54.600Z,4.72
2023-02-19T17:18:22.195Z,4.80
2023-02-19T17:20:56.575Z,4.70
2023-02-19T17:25:54.634Z,2.97
2023-02-19T17:28:21.450Z,2.60
2023-02-19T17:30:48.131Z,2.10
2023-02-19T17:33:17.233Z,3.60
2023-02-19T17:35:51.207Z,1.80
2023-02-19T17:38:17.778Z,2.13
2023-02-19T17:40:47.345Z,3.50
2023-02-19T17:43:21.744Z,4.22
2023-02-19T17:48:15.691Z,6.70
2023-02-19T17:50:42.406Z,4.65
2023-02-19T17:53:09.713Z,12.18
2023-02-19T17:55:36.351Z,4.65
2023-02-19T17:58:08.123Z,6.15
2023-02-19T18:00:36.339Z,9.00
2023-02-19T18:03:04.160Z,7.63
2023-02-19T18:05:31.427Z,6.20
2023-02-19T18:07:58.044Z,22.55
2023-02-19T18:22:44.531Z,9.30
2023-02-19T18:25:19.699Z,10.00
2023-02-19T18:27:49.640Z,9.70
2023-02-19T18:30:19.124Z,11.77
2023-02-19T18:32:50.230Z,13.38
2023-02-19T18:35:20.073Z,13.80
2023-02-19T18:37:51.834Z,10.95
2023-02-19T18:40:20.433Z,10.27
2023-02-19T18:42:47.102Z,15.05
2023-02-19T18:45:13.777Z,12.45
2023-02-19T18:47:41.411Z,15.02
2023-02-19T18:50:09.771Z,11.98
2023-02-19T18:52:36.894Z,13.57
2023-02-19T19:22:04.437Z,10.80
2023-02-19T19:24:31.078Z,10.20
2023-02-19T19:26:57.694Z,11.73
2023-02-19T19:29:27.362Z,12.70
2023-02-19T19:31:57.114Z,11.80
2023-02-19T19:34:24.125Z,10.10
2023-02-19T19:36:50.818Z,12.48
2023-02-19T19:39:18.732Z,11.93
2023-02-19T19:41:45.355Z,12.25
2023-02-19T19:44:14.515Z,11.90
2023-02-19T19:46:45.661Z,6.60
2023-02-19T19:49:12.832Z,2.67
2023-02-19T19:51:39.534Z,1.90
2023-02-19T19:54:06.789Z,2.20
2023-02-19T19:56:39.440Z,1.85
2023-02-19T19:59:14.218Z,1.23
2023-02-19T20:01:51.749Z,1.70
2023-02-19T20:04:21.001Z,1.40
2023-02-19T20:06:47.880Z,0.90
2023-02-19T20:09:15.240Z,1.08
2023-02-19T20:11:51.069Z,0.88
2023-02-19T20:14:23.446Z,1.02
2023-02-19T20:16:50.698Z,1.00
2023-02-19T20:19:19.123Z,1.63
2023-02-19T20:21:47.165Z,2.33
2023-02-19T20:24:16.182Z,5.00
2023-02-19T20:26:49.670Z,1.17
2023-02-19T20:29:16.445Z,1.60
2023-02-19T20:31:51.533Z,9.60
2023-02-19T20:34:18.292Z,3.20
2023-02-19T20:36:46.972Z,1.10
2023-02-19T20:39:15.186Z,1.63
2023-02-19T20:41:51.428Z,2.17
2023-02-19T20:44:21.919Z,1.60
2023-02-19T20:46:50.572Z,5.03
2023-02-19T20:49:23.202Z,2.95
2023-02-19T20:52:01.076Z,4.15
2023-02-19T20:54:32.293Z,3.10
2023-02-19T20:57:02.359Z,1.80
2023-02-19T20:59:34.918Z,1.80
2023-02-19T21:02:16.007Z,5.57
2023-02-19T21:04:45.302Z,3.45
2023-02-19T21:07:16.976Z,2.67
2023-02-19T21:09:44.712Z,2.22
2023-02-19T21:12:12.057Z,2.60
2023-02-19T21:14:40.154Z,2.67
2023-02-19T21:17:07.115Z,2.30
2023-02-19T21:19:36.101Z,2.80
2023-02-19T21:22:04.788Z,2.40
2023-02-19T21:24:34.460Z,2.97
2023-02-19T21:27:03.892Z,3.30
2023-02-19T21:29:33.822Z,2.70
2023-02-19T21:32:01.213Z,2.63
2023-02-19T21:34:32.627Z,2.25
2023-02-19T21:36:59.952Z,2.90
2023-02-19T21:39:29.331Z,2.72
2023-02-19T21:41:58.638Z,2.30
2023-02-19T21:44:25.342Z,3.00
2023-02-19T21:46:53.704Z,4.72
2023-02-19T21:49:20.309Z,2.28
2023-02-19T21:51:48.701Z,3.58
2023-02-19T21:54:21.197Z,3.45
2023-02-19T21:56:48.742Z,3.47
2023-02-19T21:59:15.703Z,2.60
2023-02-19T22:01:54.128Z,2.42
2023-02-19T22:04:24.697Z,1.92
2023-02-19T22:06:59.295Z,3.10
2023-02-19T22:09:28.531Z,3.28
2023-02-19T22:11:55.225Z,2.60
2023-02-19T22:14:21.884Z,2.70
2023-02-19T22:16:51.972Z,4.00
2023-02-19T22:19:19.746Z,3.90
2023-02-19T22:21:46.440Z,2.95
2023-02-19T22:24:18.369Z,2.22
2023-02-19T22:26:48.105Z,2.50
2023-02-19T22:29:16.248Z,3.15
2023-02-19T22:31:45.564Z,3.10
2023-02-19T22:34:12.448Z,4.50
2023-02-19T22:36:41.578Z,3.83
2023-02-19T22:39:17.857Z,3.28
2023-02-19T22:41:47.806Z,3.60
2023-02-19T22:44:16.736Z,4.25
2023-02-19T22:46:54.047Z,3.90
2023-02-19T22:49:22.775Z,3.45
2023-02-19T22:52:24.113Z,4.20
2023-02-19T22:54:53.205Z,2.75
2023-02-19T22:57:19.811Z,4.03
2023-02-19T22:59:46.459Z,3.38
2023-02-19T23:02:18.488Z,3.03
2023-02-19T23:04:45.106Z,2.33
2023-02-19T23:07:11.718Z,3.05
2023-02-19T23:09:41.109Z,2.47
2023-02-19T23:12:10.549Z,3.50
2023-02-19T23:14:40.295Z,3.03
2023-02-19T23:17:11.049Z,2.90
2023-02-19T23:19:40.311Z,2.70
2023-02-19T23:22:10.340Z,3.90
2023-02-19T23:24:43.276Z,3.08
2023-02-19T23:27:12.242Z,2.50
2023-02-19T23:29:41.361Z,2.80
2023-02-19T23:32:09.429Z,3.10
2023-02-19T23:34:41.077Z,2.60
2023-02-19T23:37:07.752Z,2.50
2023-02-19T23:39:37.220Z,2.25
2023-02-19T23:42:06.400Z,1.88
2023-02-19T23:44:39.473Z,2.50
2023-02-19T23:47:06.143Z,2.70
2023-02-19T23:49:35.831Z,1.80
2023-02-19T23:52:11.777Z,2.70
2023-02-19T23:54:40.798Z,2.00
2023-02-19T23:57:07.605Z,2.40
2023-02-19T23:59:37.147Z,2.65
